This is the latest recevied weather packets stored in our database for station/object HB9FVK-10. If no packets are shown the sender has not sent any weather packets the latest 10 day(s).
| Time | Temp. | Humidity | Pressure | Rain* | Wind** | Luminosity | Snow |
|---|---|---|---|---|---|---|---|
| 1777188052 | 13.89° C | 47% | 1025.9 hPa | - | - | - | - |
| 1777182642 | 8.33° C | 73% | 1025.9 hPa | - | - | - | - |
| 1777181440 | 7.22° C | 76% | 1025.7 hPa | - | - | - | - |
| 1777180238 | 6.67° C | 79% | 1025.6 hPa | - | - | - | - |
| 1777179055 | 5.56° C | 82% | 1025.6 hPa | - | - | - | - |
| 1777176651 | 5° C | 83% | 1025.3 hPa | - | - | - | - |
| 1777174226 | 6.11° C | 82% | 1024.9 hPa | - | - | - | - |
| 1777170619 | 6.11° C | 82% | 1024.8 hPa | - | - | - | - |
| 1777164667 | 7.22° C | 78% | 1024.4 hPa | - | - | - | - |
| 1777160479 | 8.33° C | 76% | 1024.4 hPa | - | - | - | - |
| 1777156852 | 10° C | 69% | 1024.3 hPa | - | - | - | - |
| 1777153867 | 10.56° C | 65% | 1024 hPa | - | - | - | - |
| 1777153245 | 11.11° C | 64% | 1024 hPa | - | - | - | - |
| 1777147254 | 13.89° C | 53% | 1023 hPa | - | - | - | - |
| 1777143025 | 17.78° C | 42% | 1021.9 hPa | - | - | - | - |
| 1777141843 | 18.89° C | 35% | 1021.7 hPa | - | - | - | - |
| 1777138837 | 21.11° C | 29% | 1021.2 hPa | - | - | - | - |
| 1777138216 | 21.11° C | 30% | 1021.2 hPa | - | - | - | - |
| 1777137675 | 21.67° C | 29% | 1021.1 hPa | - | - | - | - |
| 1777134068 | 22.22° C | 28% | 1021.1 hPa | - | - | - | - |
| 1777130462 | 22.22° C | 29% | 1021 hPa | - | - | - | - |
| 1777119039 | 21.11° C | 25% | 1021.7 hPa | - | - | - | - |
| 1777115454 | 20.56° C | 31% | 1022.1 hPa | - | - | - | - |
| 1777114231 | 20.56° C | 34% | 1022.3 hPa | - | - | - | - |
| 1777112427 | 18.89° C | 37% | 1022.6 hPa | - | - | - | - |
* Rain since midnight (hover to see other rain measurements)
** Current wind speed in m/s (hover to see current wind gust speed)